DRRN

Diori Hamani International Airport

Niamey, Niger
METAR DRRN 170500Z 24003KT CAVOK 29/21 Q1011 NOSIG
Observed Flight Rules
Oct-17 @ 05:00 UTC (44 minutes ago) Visual Flight Rules
Wind Visibility Clouds
240° at 3 knots 10,000+ meters
  • Clear skies
Temperatures Readings
Current 29°C / 84°F
Dewpoint 21°C / 70°F
Humidity 62%
Altimeter 29.85" Hg
Pressure 1011 hPa
Elevation 227
METAR DRRN 170500Z 24003KT CAVOK 29/21 Q1011 NOSIG
Observed Flight Rules
Oct-17 @ 05:00 UTC
(44 minutes ago)
VFR
Wind Visibility
240° at 3 knots 10,000+ meters
Clouds
  • Clear skies
Temperature Dewpoint
29°C / 84°F 21°C / 70°F
Humidity Altimeter Pressure
62% 29.85" Hg 1011 hPa